sensor_id;sensor_type;location;lat;lon;timestamp;pressure;altitude;pressure_sealevel;temperature;humidity
48846;BME280;34665;51.886;5.436;2023-04-08T00:01:52;102102.00;;;14.01;100.00
48846;BME280;34665;51.886;5.436;2023-04-08T00:04:17;102105.91;;;13.84;100.00
48846;BME280;34665;51.886;5.436;2023-04-08T00:06:43;102107.56;;;14.00;100.00
48846;BME280;34665;51.886;5.436;2023-04-08T00:09:08;102100.63;;;13.90;100.00
48846;BME280;34665;51.886;5.436;2023-04-08T00:11:33;102108.59;;;13.69;100.00
48846;BME280;34665;51.886;5.436;2023-04-08T00:13:59;102116.00;;;13.97;100.00
48846;BME280;34665;51.886;5.436;2023-04-08T00:16:24;102108.84;;;13.89;100.00
48846;BME280;34665;51.886;5.436;2023-04-08T00:18:49;102106.06;;;13.82;100.00
48846;BME280;34665;51.886;5.436;2023-04-08T00:21:15;102106.53;;;13.86;100.00
48846;BME280;34665;51.886;5.436;2023-04-08T00:23:42;102102.63;;;13.58;100.00
48846;BME280;34665;51.886;5.436;2023-04-08T00:26:07;102106.19;;;13.74;100.00
48846;BME280;34665;51.886;5.436;2023-04-08T00:28:33;102107.66;;;13.76;100.00
48846;BME280;34665;51.886;5.436;2023-04-08T00:30:58;102105.81;;;13.77;100.00
48846;BME280;34665;51.886;5.436;2023-04-08T00:33:23;102108.38;;;13.70;100.00
48846;BME280;34665;51.886;5.436;2023-04-08T00:35:49;102109.13;;;13.64;100.00
48846;BME280;34665;51.886;5.436;2023-04-08T00:38:15;102110.63;;;13.52;100.00
48846;BME280;34665;51.886;5.436;2023-04-08T00:40:40;102113.91;;;13.39;100.00
48846;BME280;34665;51.886;5.436;2023-04-08T00:43:06;102112.41;;;13.36;100.00
48846;BME280;34665;51.886;5.436;2023-04-08T00:45:32;102116.66;;;13.30;100.00
48846;BME280;34665;51.886;5.436;2023-04-08T00:47:58;102116.72;;;13.07;100.00
48846;BME280;34665;51.886;5.436;2023-04-08T00:50:23;102113.78;;;13.17;100.00
48846;BME280;34665;51.886;5.436;2023-04-08T00:52:48;102114.44;;;13.19;100.00
48846;BME280;34665;51.886;5.436;2023-04-08T00:55:14;102115.06;;;13.21;100.00
48846;BME280;34665;51.886;5.436;2023-04-08T00:57:40;102112.69;;;13.26;100.00
48846;BME280;34665;51.886;5.436;2023-04-08T01:00:06;102109.44;;;13.16;100.00
48846;BME280;34665;51.886;5.436;2023-04-08T01:02:39;102111.63;;;13.12;100.00
48846;BME280;34665;51.886;5.436;2023-04-08T01:07:34;102108.75;;;13.14;100.00
48846;BME280;34665;51.886;5.436;2023-04-08T01:10:07;102110.13;;;13.10;100.00
48846;BME280;34665;51.886;5.436;2023-04-08T01:12:36;102110.56;;;12.98;100.00
48846;BME280;34665;51.886;5.436;2023-04-08T01:15:05;102126.63;;;12.83;100.00
48846;BME280;34665;51.886;5.436;2023-04-08T01:17:32;102120.47;;;12.74;100.00
48846;BME280;34665;51.886;5.436;2023-04-08T01:19:59;102125.41;;;12.86;100.00
48846;BME280;34665;51.886;5.436;2023-04-08T01:24:53;102117.84;;;12.89;100.00
48846;BME280;34665;51.886;5.436;2023-04-08T01:27:21;102116.22;;;13.03;100.00
48846;BME280;34665;51.886;5.436;2023-04-08T01:29:47;102116.88;;;13.05;100.00
48846;BME280;34665;51.886;5.436;2023-04-08T01:32:13;102120.66;;;12.96;100.00
48846;BME280;34665;51.886;5.436;2023-04-08T01:34:39;102122.69;;;12.94;100.00
48846;BME280;34665;51.886;5.436;2023-04-08T01:37:05;102116.66;;;12.92;100.00
48846;BME280;34665;51.886;5.436;2023-04-08T01:39:32;102119.53;;;12.90;100.00
48846;BME280;34665;51.886;5.436;2023-04-08T01:41:57;102124.41;;;12.87;100.00
48846;BME280;34665;51.886;5.436;2023-04-08T01:44:23;102127.09;;;12.87;100.00
48846;BME280;34665;51.886;5.436;2023-04-08T01:46:50;102124.59;;;12.85;100.00
48846;BME280;34665;51.886;5.436;2023-04-08T01:49:18;102136.81;;;12.88;100.00
48846;BME280;34665;51.886;5.436;2023-04-08T01:51:44;102135.50;;;12.84;100.00
48846;BME280;34665;51.886;5.436;2023-04-08T01:54:11;102136.03;;;12.79;100.00
48846;BME280;34665;51.886;5.436;2023-04-08T01:56:37;102129.28;;;12.60;100.00
48846;BME280;34665;51.886;5.436;2023-04-08T01:59:04;102129.13;;;12.61;100.00
48846;BME280;34665;51.886;5.436;2023-04-08T02:01:32;102128.63;;;12.58;100.00
48846;BME280;34665;51.886;5.436;2023-04-08T02:03:59;102135.16;;;12.64;100.00
48846;BME280;34665;51.886;5.436;2023-04-08T02:06:25;102124.56;;;12.62;100.00
48846;BME280;34665;51.886;5.436;2023-04-08T02:08:53;102131.97;;;12.60;100.00
48846;BME280;34665;51.886;5.436;2023-04-08T02:11:19;102137.69;;;12.57;100.00
48846;BME280;34665;51.886;5.436;2023-04-08T02:13:45;102132.81;;;12.60;100.00
48846;BME280;34665;51.886;5.436;2023-04-08T02:19:07;102130.53;;;12.49;100.00
48846;BME280;34665;51.886;5.436;2023-04-08T02:21:37;102125.34;;;12.47;100.00
48846;BME280;34665;51.886;5.436;2023-04-08T02:24:08;102129.06;;;12.38;100.00
48846;BME280;34665;51.886;5.436;2023-04-08T02:26:36;102132.97;;;12.27;100.00
48846;BME280;34665;51.886;5.436;2023-04-08T02:29:03;102133.16;;;12.26;100.00
48846;BME280;34665;51.886;5.436;2023-04-08T02:31:29;102133.59;;;12.06;100.00
48846;BME280;34665;51.886;5.436;2023-04-08T02:33:55;102134.75;;;12.12;100.00
48846;BME280;34665;51.886;5.436;2023-04-08T02:36:21;102134.41;;;11.98;100.00
48846;BME280;34665;51.886;5.436;2023-04-08T02:38:47;102135.91;;;12.09;100.00
48846;BME280;34665;51.886;5.436;2023-04-08T02:41:15;102142.44;;;12.07;100.00
48846;BME280;34665;51.886;5.436;2023-04-08T02:43:40;102141.63;;;12.06;100.00
48846;BME280;34665;51.886;5.436;2023-04-08T02:46:06;102146.44;;;12.11;100.00
48846;BME280;34665;51.886;5.436;2023-04-08T02:48:34;102147.66;;;12.08;100.00
48846;BME280;34665;51.886;5.436;2023-04-08T02:51:00;102147.97;;;12.13;100.00
48846;BME280;34665;51.886;5.436;2023-04-08T02:53:25;102143.25;;;12.15;100.00
48846;BME280;34665;51.886;5.436;2023-04-08T02:55:51;102148.63;;;12.15;100.00
48846;BME280;34665;51.886;5.436;2023-04-08T02:58:16;102152.97;;;12.16;100.00
48846;BME280;34665;51.886;5.436;2023-04-08T03:00:42;102148.66;;;12.07;100.00
48846;BME280;34665;51.886;5.436;2023-04-08T03:03:08;102152.34;;;12.06;100.00
48846;BME280;34665;51.886;5.436;2023-04-08T03:05:33;102150.53;;;11.90;100.00
48846;BME280;34665;51.886;5.436;2023-04-08T03:07:59;102156.25;;;11.79;100.00
48846;BME280;34665;51.886;5.436;2023-04-08T03:10:24;102169.97;;;11.84;100.00
48846;BME280;34665;51.886;5.436;2023-04-08T03:12:50;102163.97;;;11.73;100.00
48846;BME280;34665;51.886;5.436;2023-04-08T03:15:15;102161.28;;;11.73;100.00
48846;BME280;34665;51.886;5.436;2023-04-08T03:17:40;102163.47;;;11.70;100.00
48846;BME280;34665;51.886;5.436;2023-04-08T03:20:06;102166.84;;;11.55;100.00
48846;BME280;34665;51.886;5.436;2023-04-08T03:22:32;102161.81;;;11.52;100.00
48846;BME280;34665;51.886;5.436;2023-04-08T03:24:57;102164.00;;;11.48;100.00
48846;BME280;34665;51.886;5.436;2023-04-08T03:27:23;102160.66;;;11.55;100.00
48846;BME280;34665;51.886;5.436;2023-04-08T03:29:48;102166.00;;;11.55;100.00
48846;BME280;34665;51.886;5.436;2023-04-08T03:32:14;102168.00;;;11.53;100.00
48846;BME280;34665;51.886;5.436;2023-04-08T03:34:39;102171.53;;;11.45;100.00
48846;BME280;34665;51.886;5.436;2023-04-08T03:37:05;102167.19;;;11.44;100.00
48846;BME280;34665;51.886;5.436;2023-04-08T03:39:30;102170.88;;;11.43;100.00
48846;BME280;34665;51.886;5.436;2023-04-08T03:41:56;102167.69;;;11.39;100.00
48846;BME280;34665;51.886;5.436;2023-04-08T03:44:23;102170.34;;;11.39;100.00
48846;BME280;34665;51.886;5.436;2023-04-08T03:46:49;102176.72;;;11.38;100.00
48846;BME280;34665;51.886;5.436;2023-04-08T03:49:15;102182.09;;;11.46;100.00
48846;BME280;34665;51.886;5.436;2023-04-08T03:51:40;102181.06;;;11.39;100.00
48846;BME280;34665;51.886;5.436;2023-04-08T03:54:05;102175.22;;;11.44;100.00
48846;BME280;34665;51.886;5.436;2023-04-08T03:56:32;102183.75;;;11.39;100.00
48846;BME280;34665;51.886;5.436;2023-04-08T03:58:57;102182.25;;;11.37;100.00
48846;BME280;34665;51.886;5.436;2023-04-08T04:01:23;102183.94;;;11.38;100.00
48846;BME280;34665;51.886;5.436;2023-04-08T04:03:48;102188.97;;;11.32;100.00
48846;BME280;34665;51.886;5.436;2023-04-08T04:06:14;102179.91;;;11.33;100.00
48846;BME280;34665;51.886;5.436;2023-04-08T04:08:39;102184.94;;;11.37;100.00
48846;BME280;34665;51.886;5.436;2023-04-08T04:11:05;102190.63;;;11.42;100.00
48846;BME280;34665;51.886;5.436;2023-04-08T04:13:30;102197.81;;;11.41;100.00
48846;BME280;34665;51.886;5.436;2023-04-08T04:15:55;102199.00;;;11.39;100.00
48846;BME280;34665;51.886;5.436;2023-04-08T04:18:21;102201.34;;;11.33;100.00
48846;BME280;34665;51.886;5.436;2023-04-08T04:20:47;102203.00;;;11.26;100.00
48846;BME280;34665;51.886;5.436;2023-04-08T04:23:12;102196.50;;;11.45;100.00
48846;BME280;34665;51.886;5.436;2023-04-08T04:25:40;102203.50;;;11.38;100.00
48846;BME280;34665;51.886;5.436;2023-04-08T04:28:05;102204.03;;;11.42;100.00
48846;BME280;34665;51.886;5.436;2023-04-08T04:30:30;102207.69;;;11.41;100.00
48846;BME280;34665;51.886;5.436;2023-04-08T04:32:56;102206.84;;;11.40;100.00
48846;BME280;34665;51.886;5.436;2023-04-08T04:35:21;102213.72;;;11.35;100.00
48846;BME280;34665;51.886;5.436;2023-04-08T04:37:47;102216.38;;;11.26;100.00
48846;BME280;34665;51.886;5.436;2023-04-08T04:40:14;102214.88;;;11.15;100.00
48846;BME280;34665;51.886;5.436;2023-04-08T04:42:40;102214.38;;;11.28;100.00
48846;BME280;34665;51.886;5.436;2023-04-08T04:45:06;102227.28;;;11.33;100.00
48846;BME280;34665;51.886;5.436;2023-04-08T04:47:32;102225.44;;;11.33;100.00
48846;BME280;34665;51.886;5.436;2023-04-08T04:49:57;102222.94;;;11.32;100.00
48846;BME280;34665;51.886;5.436;2023-04-08T04:52:23;102226.75;;;11.29;100.00
48846;BME280;34665;51.886;5.436;2023-04-08T04:54:48;102224.44;;;11.35;100.00
48846;BME280;34665;51.886;5.436;2023-04-08T04:57:13;102235.84;;;11.37;100.00
48846;BME280;34665;51.886;5.436;2023-04-08T04:59:39;102235.81;;;11.28;100.00
48846;BME280;34665;51.886;5.436;2023-04-08T05:02:04;102233.94;;;11.12;100.00
48846;BME280;34665;51.886;5.436;2023-04-08T05:04:29;102239.19;;;11.30;100.00
48846;BME280;34665;51.886;5.436;2023-04-08T05:06:57;102239.34;;;11.29;100.00
48846;BME280;34665;51.886;5.436;2023-04-08T05:09:23;102242.03;;;11.45;100.00
48846;BME280;34665;51.886;5.436;2023-04-08T05:11:48;102239.00;;;11.32;100.00
48846;BME280;34665;51.886;5.436;2023-04-08T05:14:15;102231.41;;;11.02;100.00
48846;BME280;34665;51.886;5.436;2023-04-08T05:16:40;102245.31;;;11.06;100.00
48846;BME280;34665;51.886;5.436;2023-04-08T05:19:05;102242.50;;;11.08;100.00
48846;BME280;34665;51.886;5.436;2023-04-08T05:21:31;102247.53;;;11.19;100.00
48846;BME280;34665;51.886;5.436;2023-04-08T05:23:56;102250.00;;;11.04;100.00
48846;BME280;34665;51.886;5.436;2023-04-08T05:26:22;102259.22;;;11.10;100.00
48846;BME280;34665;51.886;5.436;2023-04-08T05:28:48;102254.31;;;10.88;100.00
48846;BME280;34665;51.886;5.436;2023-04-08T05:31:17;102265.19;;;10.95;100.00
48846;BME280;34665;51.886;5.436;2023-04-08T05:33:43;102261.00;;;10.93;100.00
48846;BME280;34665;51.886;5.436;2023-04-08T05:36:12;102261.13;;;10.74;100.00
48846;BME280;34665;51.886;5.436;2023-04-08T05:38:38;102266.00;;;10.44;100.00
48846;BME280;34665;51.886;5.436;2023-04-08T05:41:03;102266.34;;;10.84;100.00
48846;BME280;34665;51.886;5.436;2023-04-08T05:43:31;102268.34;;;10.90;100.00
48846;BME280;34665;51.886;5.436;2023-04-08T05:45:56;102281.59;;;11.00;100.00
48846;BME280;34665;51.886;5.436;2023-04-08T05:48:22;102275.91;;;10.95;100.00
48846;BME280;34665;51.886;5.436;2023-04-08T05:50:47;102271.03;;;10.90;100.00
48846;BME280;34665;51.886;5.436;2023-04-08T05:53:13;102272.72;;;10.92;100.00
48846;BME280;34665;51.886;5.436;2023-04-08T05:55:39;102278.53;;;10.79;100.00
48846;BME280;34665;51.886;5.436;2023-04-08T05:58:04;102277.44;;;10.98;100.00
48846;BME280;34665;51.886;5.436;2023-04-08T06:00:31;102278.59;;;10.95;100.00
48846;BME280;34665;51.886;5.436;2023-04-08T06:02:56;102280.59;;;10.93;100.00
48846;BME280;34665;51.886;5.436;2023-04-08T06:05:22;102280.53;;;10.76;100.00
48846;BME280;34665;51.886;5.436;2023-04-08T06:07:47;102282.25;;;10.94;100.00
48846;BME280;34665;51.886;5.436;2023-04-08T06:10:13;102278.28;;;11.07;100.00
48846;BME280;34665;51.886;5.436;2023-04-08T06:12:38;102284.31;;;11.09;100.00
48846;BME280;34665;51.886;5.436;2023-04-08T06:15:05;102283.34;;;11.18;100.00
48846;BME280;34665;51.886;5.436;2023-04-08T06:17:30;102292.03;;;11.20;100.00
48846;BME280;34665;51.886;5.436;2023-04-08T06:19:56;102290.69;;;11.24;100.00
48846;BME280;34665;51.886;5.436;2023-04-08T06:22:21;102305.63;;;11.27;100.00
48846;BME280;34665;51.886;5.436;2023-04-08T06:24:47;102300.78;;;11.30;100.00
48846;BME280;34665;51.886;5.436;2023-04-08T06:27:12;102308.00;;;11.46;100.00
48846;BME280;34665;51.886;5.436;2023-04-08T06:29:37;102302.31;;;11.50;100.00
48846;BME280;34665;51.886;5.436;2023-04-08T06:32:03;102319.53;;;11.47;100.00
48846;BME280;34665;51.886;5.436;2023-04-08T06:34:29;102316.56;;;11.58;100.00
48846;BME280;34665;51.886;5.436;2023-04-08T06:36:55;102311.88;;;11.60;100.00
48846;BME280;34665;51.886;5.436;2023-04-08T06:39:20;102318.56;;;11.73;100.00
48846;BME280;34665;51.886;5.436;2023-04-08T06:41:45;102327.59;;;11.64;100.00
48846;BME280;34665;51.886;5.436;2023-04-08T06:44:26;102327.44;;;11.65;100.00
48846;BME280;34665;51.886;5.436;2023-04-08T06:46:51;102325.94;;;11.71;100.00
48846;BME280;34665;51.886;5.436;2023-04-08T06:49:16;102323.09;;;11.81;100.00
48846;BME280;34665;51.886;5.436;2023-04-08T06:51:42;102332.31;;;11.86;100.00
48846;BME280;34665;51.886;5.436;2023-04-08T06:54:07;102328.47;;;11.89;100.00
48846;BME280;34665;51.886;5.436;2023-04-08T06:56:35;102330.47;;;11.79;100.00
48846;BME280;34665;51.886;5.436;2023-04-08T06:59:00;102332.97;;;11.64;100.00
48846;BME280;34665;51.886;5.436;2023-04-08T07:01:26;102331.97;;;11.65;100.00
48846;BME280;34665;51.886;5.436;2023-04-08T07:03:51;102341.03;;;11.80;100.00
48846;BME280;34665;51.886;5.436;2023-04-08T07:06:17;102343.19;;;11.76;100.00
48846;BME280;34665;51.886;5.436;2023-04-08T07:08:42;102349.56;;;11.75;100.00
48846;BME280;34665;51.886;5.436;2023-04-08T07:11:08;102349.53;;;11.59;100.00
48846;BME280;34665;51.886;5.436;2023-04-08T07:13:33;102351.75;;;11.80;100.00
48846;BME280;34665;51.886;5.436;2023-04-08T07:15:59;102349.75;;;11.82;100.00
48846;BME280;34665;51.886;5.436;2023-04-08T07:18:25;102376.22;;;11.85;100.00
48846;BME280;34665;51.886;5.436;2023-04-08T07:20:51;102376.25;;;12.02;100.00
48846;BME280;34665;51.886;5.436;2023-04-08T07:23:21;102370.03;;;12.01;100.00
48846;BME280;34665;51.886;5.436;2023-04-08T07:25:46;102372.31;;;11.63;100.00
48846;BME280;34665;51.886;5.436;2023-04-08T07:28:12;102378.53;;;11.72;100.00
48846;BME280;34665;51.886;5.436;2023-04-08T07:30:38;102369.69;;;11.96;100.00
48846;BME280;34665;51.886;5.436;2023-04-08T07:33:03;102374.59;;;12.01;100.00
48846;BME280;34665;51.886;5.436;2023-04-08T07:35:29;102379.94;;;12.09;100.00
48846;BME280;34665;51.886;5.436;2023-04-08T07:37:56;102384.28;;;12.10;100.00
48846;BME280;34665;51.886;5.436;2023-04-08T07:40:21;102387.25;;;11.90;100.00
48846;BME280;34665;51.886;5.436;2023-04-08T07:42:47;102395.81;;;11.94;100.00
48846;BME280;34665;51.886;5.436;2023-04-08T07:45:13;102391.00;;;12.14;100.00
48846;BME280;34665;51.886;5.436;2023-04-08T07:47:38;102392.84;;;12.22;100.00
48846;BME280;34665;51.886;5.436;2023-04-08T07:50:04;102395.03;;;12.27;100.00
48846;BME280;34665;51.886;5.436;2023-04-08T07:52:30;102401.38;;;12.42;100.00
48846;BME280;34665;51.886;5.436;2023-04-08T07:54:55;102399.16;;;12.54;100.00
48846;BME280;34665;51.886;5.436;2023-04-08T07:57:20;102402.00;;;12.61;100.00
48846;BME280;34665;51.886;5.436;2023-04-08T07:59:46;102395.13;;;12.67;100.00
48846;BME280;34665;51.886;5.436;2023-04-08T08:02:12;102400.03;;;12.46;100.00
48846;BME280;34665;51.886;5.436;2023-04-08T08:04:37;102401.03;;;12.54;100.00
48846;BME280;34665;51.886;5.436;2023-04-08T08:07:02;102397.69;;;12.52;100.00
48846;BME280;34665;51.886;5.436;2023-04-08T08:09:28;102394.50;;;12.48;100.00
48846;BME280;34665;51.886;5.436;2023-04-08T08:11:54;102400.00;;;12.63;100.00
48846;BME280;34665;51.886;5.436;2023-04-08T08:14:19;102398.31;;;12.70;100.00
48846;BME280;34665;51.886;5.436;2023-04-08T08:16:46;102399.47;;;12.84;100.00
48846;BME280;34665;51.886;5.436;2023-04-08T08:19:12;102402.22;;;13.16;100.00
48846;BME280;34665;51.886;5.436;2023-04-08T08:21:38;102407.81;;;12.89;100.00
48846;BME280;34665;51.886;5.436;2023-04-08T08:24:04;102414.28;;;13.12;100.00
48846;BME280;34665;51.886;5.436;2023-04-08T08:26:30;102411.53;;;13.28;100.00
48846;BME280;34665;51.886;5.436;2023-04-08T08:28:55;102411.03;;;13.33;100.00
48846;BME280;34665;51.886;5.436;2023-04-08T08:31:21;102407.75;;;13.54;100.00
48846;BME280;34665;51.886;5.436;2023-04-08T08:33:46;102415.66;;;13.79;100.00
48846;BME280;34665;51.886;5.436;2023-04-08T08:36:12;102419.06;;;13.73;100.00
48846;BME280;34665;51.886;5.436;2023-04-08T08:38:39;102423.25;;;13.99;100.00
48846;BME280;34665;51.886;5.436;2023-04-08T08:41:04;102414.66;;;14.03;100.00
48846;BME280;34665;51.886;5.436;2023-04-08T08:43:30;102417.78;;;14.30;100.00
48846;BME280;34665;51.886;5.436;2023-04-08T08:45:57;102426.53;;;14.32;100.00
48846;BME280;34665;51.886;5.436;2023-04-08T08:48:23;102433.59;;;13.87;100.00
48846;BME280;34665;51.886;5.436;2023-04-08T08:50:49;102431.13;;;14.24;100.00
48846;BME280;34665;51.886;5.436;2023-04-08T08:53:14;102422.56;;;14.58;100.00
48846;BME280;34665;51.886;5.436;2023-04-08T08:55:40;102428.31;;;14.79;100.00
48846;BME280;34665;51.886;5.436;2023-04-08T08:58:06;102425.34;;;14.88;100.00
48846;BME280;34665;51.886;5.436;2023-04-08T09:00:38;102433.41;;;15.18;100.00
48846;BME280;34665;51.886;5.436;2023-04-08T09:05:50;102432.19;;;15.73;100.00
48846;BME280;34665;51.886;5.436;2023-04-08T09:10:48;102439.13;;;15.82;100.00
48846;BME280;34665;51.886;5.436;2023-04-08T09:13:14;102439.72;;;16.21;100.00
48846;BME280;34665;51.886;5.436;2023-04-08T09:15:59;102444.94;;;16.73;100.00
48846;BME280;34665;51.886;5.436;2023-04-08T09:18:24;102435.91;;;16.94;100.00
48846;BME280;34665;51.886;5.436;2023-04-08T09:20:51;102442.22;;;17.50;100.00
48846;BME280;34665;51.886;5.436;2023-04-08T09:23:16;102443.97;;;17.78;98.72
48846;BME280;34665;51.886;5.436;2023-04-08T09:25:42;102441.97;;;18.41;95.77
48846;BME280;34665;51.886;5.436;2023-04-08T09:28:18;102455.09;;;19.37;89.35
48846;BME280;34665;51.886;5.436;2023-04-08T09:30:45;102455.47;;;19.54;85.16
48846;BME280;34665;51.886;5.436;2023-04-08T09:33:12;102461.88;;;20.30;83.15
48846;BME280;34665;51.886;5.436;2023-04-08T09:35:37;102461.31;;;20.22;81.47
48846;BME280;34665;51.886;5.436;2023-04-08T09:38:02;102455.41;;;20.75;78.62
48846;BME280;34665;51.886;5.436;2023-04-08T09:40:28;102450.59;;;20.96;76.24
48846;BME280;34665;51.886;5.436;2023-04-08T09:42:56;102453.72;;;21.68;73.71
48846;BME280;34665;51.886;5.436;2023-04-08T09:45:23;102463.94;;;22.27;70.48
48846;BME280;34665;51.886;5.436;2023-04-08T09:47:56;102465.03;;;22.61;66.66
48846;BME280;34665;51.886;5.436;2023-04-08T09:50:26;102463.50;;;23.42;64.19
48846;BME280;34665;51.886;5.436;2023-04-08T09:52:54;102465.75;;;23.45;62.43
48846;BME280;34665;51.886;5.436;2023-04-08T09:55:21;102466.75;;;23.85;60.27
48846;BME280;34665;51.886;5.436;2023-04-08T09:57:51;102470.63;;;23.89;58.77
48846;BME280;34665;51.886;5.436;2023-04-08T10:00:20;102469.41;;;23.97;58.82
48846;BME280;34665;51.886;5.436;2023-04-08T10:05:32;102474.06;;;24.48;57.26
48846;BME280;34665;51.886;5.436;2023-04-08T10:07:58;102467.53;;;25.55;53.50
48846;BME280;34665;51.886;5.436;2023-04-08T10:10:24;102471.69;;;25.35;54.40
48846;BME280;34665;51.886;5.436;2023-04-08T10:12:50;102468.72;;;25.92;51.22
48846;BME280;34665;51.886;5.436;2023-04-08T10:15:25;102474.91;;;26.10;49.10
48846;BME280;34665;51.886;5.436;2023-04-08T10:17:52;102470.84;;;26.50;47.63
48846;BME280;34665;51.886;5.436;2023-04-08T10:23:03;102464.78;;;26.91;45.66
48846;BME280;34665;51.886;5.436;2023-04-08T10:25:31;102459.97;;;27.24;45.10
48846;BME280;34665;51.886;5.436;2023-04-08T10:28:01;102457.72;;;27.16;44.94
48846;BME280;34665;51.886;5.436;2023-04-08T10:33:14;102457.06;;;27.88;41.91
48846;BME280;34665;51.886;5.436;2023-04-08T10:35:46;102463.91;;;28.53;41.14
48846;BME280;34665;51.886;5.436;2023-04-08T10:38:12;102456.13;;;28.81;40.50
48846;BME280;34665;51.886;5.436;2023-04-08T10:40:38;102457.00;;;28.60;40.69
48846;BME280;34665;51.886;5.436;2023-04-08T10:43:06;102445.50;;;29.19;37.97
48846;BME280;34665;51.886;5.436;2023-04-08T10:45:31;102447.59;;;29.43;36.91
48846;BME280;34665;51.886;5.436;2023-04-08T10:50:38;102441.03;;;29.28;38.61
48846;BME280;34665;51.886;5.436;2023-04-08T10:53:05;102440.81;;;29.65;37.41
48846;BME280;34665;51.886;5.436;2023-04-08T10:55:31;102447.13;;;30.59;36.16
48846;BME280;34665;51.886;5.436;2023-04-08T10:58:08;102441.97;;;30.28;36.10
48846;BME280;34665;51.886;5.436;2023-04-08T11:00:34;102450.72;;;30.59;35.76
48846;BME280;34665;51.886;5.436;2023-04-08T11:03:04;102446.72;;;30.95;34.94
48846;BME280;34665;51.886;5.436;2023-04-08T11:05:30;102443.47;;;31.31;34.01
48846;BME280;34665;51.886;5.436;2023-04-08T11:07:59;102441.53;;;31.32;34.52
48846;BME280;34665;51.886;5.436;2023-04-08T11:10:25;102441.38;;;31.95;32.49
48846;BME280;34665;51.886;5.436;2023-04-08T11:12:55;102436.84;;;31.85;31.76
48846;BME280;34665;51.886;5.436;2023-04-08T11:15:24;102439.78;;;32.08;35.01
48846;BME280;34665;51.886;5.436;2023-04-08T11:17:50;102437.63;;;32.18;31.45
48846;BME280;34665;51.886;5.436;2023-04-08T11:20:16;102438.75;;;32.03;30.61
48846;BME280;34665;51.886;5.436;2023-04-08T11:22:42;102437.94;;;32.17;30.53
48846;BME280;34665;51.886;5.436;2023-04-08T11:25:09;102432.47;;;32.59;29.94
48846;BME280;34665;51.886;5.436;2023-04-08T11:27:35;102440.19;;;33.13;29.89
48846;BME280;34665;51.886;5.436;2023-04-08T11:30:02;102439.56;;;33.53;30.99
48846;BME280;34665;51.886;5.436;2023-04-08T11:32:28;102442.50;;;34.02;28.90
48846;BME280;34665;51.886;5.436;2023-04-08T11:34:54;102441.53;;;33.52;28.11
48846;BME280;34665;51.886;5.436;2023-04-08T11:37:21;102434.41;;;34.14;28.15
48846;BME280;34665;51.886;5.436;2023-04-08T11:39:49;102435.88;;;34.52;27.10
48846;BME280;34665;51.886;5.436;2023-04-08T11:42:27;102441.31;;;34.26;26.48
48846;BME280;34665;51.886;5.436;2023-04-08T11:44:53;102437.28;;;34.41;26.03
48846;BME280;34665;51.886;5.436;2023-04-08T11:47:18;102432.81;;;34.31;25.74
48846;BME280;34665;51.886;5.436;2023-04-08T11:49:44;102438.72;;;34.79;25.36
48846;BME280;34665;51.886;5.436;2023-04-08T11:52:10;102435.25;;;34.64;25.40
48846;BME280;34665;51.886;5.436;2023-04-08T11:54:39;102426.63;;;34.74;26.42
48846;BME280;34665;51.886;5.436;2023-04-08T11:57:05;102431.47;;;34.51;25.15
48846;BME280;34665;51.886;5.436;2023-04-08T11:59:31;102440.53;;;34.92;25.03
48846;BME280;34665;51.886;5.436;2023-04-08T12:01:56;102435.69;;;35.07;27.74
48846;BME280;34665;51.886;5.436;2023-04-08T12:04:23;102431.50;;;34.78;25.33
48846;BME280;34665;51.886;5.436;2023-04-08T12:06:48;102425.34;;;36.16;23.48
48846;BME280;34665;51.886;5.436;2023-04-08T12:09:14;102423.47;;;35.91;24.17
48846;BME280;34665;51.886;5.436;2023-04-08T12:11:41;102428.47;;;35.58;23.39
48846;BME280;34665;51.886;5.436;2023-04-08T12:14:07;102427.50;;;35.45;24.19
48846;BME280;34665;51.886;5.436;2023-04-08T12:16:32;102421.75;;;35.51;24.66
48846;BME280;34665;51.886;5.436;2023-04-08T12:18:58;102417.41;;;35.88;23.07
48846;BME280;34665;51.886;5.436;2023-04-08T12:21:23;102417.66;;;35.66;23.83
48846;BME280;34665;51.886;5.436;2023-04-08T12:23:49;102424.47;;;34.22;23.94
48846;BME280;34665;51.886;5.436;2023-04-08T12:26:14;102413.94;;;33.79;23.51
48846;BME280;34665;51.886;5.436;2023-04-08T12:28:40;102415.47;;;33.39;23.97
48846;BME280;34665;51.886;5.436;2023-04-08T12:31:06;102416.69;;;33.33;24.11
48846;BME280;34665;51.886;5.436;2023-04-08T12:33:31;102418.69;;;32.82;26.86
48846;BME280;34665;51.886;5.436;2023-04-08T12:35:57;102417.56;;;32.83;24.77
48846;BME280;34665;51.886;5.436;2023-04-08T12:38:24;102408.91;;;31.67;24.45
48846;BME280;34665;51.886;5.436;2023-04-08T12:40:50;102408.47;;;30.59;29.69
48846;BME280;34665;51.886;5.436;2023-04-08T12:43:16;102409.13;;;29.97;30.06
48846;BME280;34665;51.886;5.436;2023-04-08T12:45:41;102409.44;;;29.60;27.25
48846;BME280;34665;51.886;5.436;2023-04-08T12:48:07;102406.84;;;29.34;26.55
48846;BME280;34665;51.886;5.436;2023-04-08T12:50:32;102394.13;;;28.94;28.81
48846;BME280;34665;51.886;5.436;2023-04-08T12:52:58;102402.47;;;28.78;28.33
48846;BME280;34665;51.886;5.436;2023-04-08T12:55:23;102398.50;;;28.29;28.24
48846;BME280;34665;51.886;5.436;2023-04-08T12:57:50;102386.44;;;27.78;28.98
48846;BME280;34665;51.886;5.436;2023-04-08T13:00:15;102381.50;;;27.59;29.68
48846;BME280;34665;51.886;5.436;2023-04-08T13:02:41;102378.13;;;27.31;29.21